sensor_id;sensor_type;location;lat;lon;timestamp;pressure;altitude;pressure_sealevel;temperature;humidity
30463;BME280;17256;43.618;25.336;2023-04-15T00:00:28;99634.22;;;11.34;100.00
30463;BME280;17256;43.618;25.336;2023-04-15T00:02:54;99620.16;;;11.05;100.00
30463;BME280;17256;43.618;25.336;2023-04-15T00:05:20;99544.91;;;10.63;100.00
30463;BME280;17256;43.618;25.336;2023-04-15T00:07:46;99823.50;;;12.42;100.00
30463;BME280;17256;43.618;25.336;2023-04-15T00:10:12;99715.47;;;11.73;100.00
30463;BME280;17256;43.618;25.336;2023-04-15T00:12:39;99726.50;;;11.91;100.00
30463;BME280;17256;43.618;25.336;2023-04-15T00:15:05;99529.03;;;10.65;100.00
30463;BME280;17256;43.618;25.336;2023-04-15T00:17:32;99665.19;;;11.48;100.00
30463;BME280;17256;43.618;25.336;2023-04-15T00:19:58;99573.72;;;10.79;100.00
30463;BME280;17256;43.618;25.336;2023-04-15T00:22:25;99726.69;;;11.71;100.00
30463;BME280;17256;43.618;25.336;2023-04-15T00:24:52;99618.94;;;11.01;100.00
30463;BME280;17256;43.618;25.336;2023-04-15T00:27:17;99569.13;;;10.73;100.00
30463;BME280;17256;43.618;25.336;2023-04-15T00:29:43;99604.56;;;10.99;100.00
30463;BME280;17256;43.618;25.336;2023-04-15T00:32:09;99680.22;;;11.63;100.00
30463;BME280;17256;43.618;25.336;2023-04-15T00:34:35;99749.75;;;11.95;100.00
30463;BME280;17256;43.618;25.336;2023-04-15T00:37:01;99682.66;;;11.53;100.00
30463;BME280;17256;43.618;25.336;2023-04-15T00:39:27;99606.03;;;11.02;100.00
30463;BME280;17256;43.618;25.336;2023-04-15T00:41:52;99880.44;;;12.66;100.00
30463;BME280;17256;43.618;25.336;2023-04-15T00:44:19;99642.41;;;11.22;100.00
30463;BME280;17256;43.618;25.336;2023-04-15T00:46:45;99818.00;;;12.42;100.00
30463;BME280;17256;43.618;25.336;2023-04-15T00:49:11;99719.88;;;11.74;100.00
30463;BME280;17256;43.618;25.336;2023-04-15T00:51:37;99618.78;;;11.15;100.00
30463;BME280;17256;43.618;25.336;2023-04-15T00:54:08;99602.44;;;11.01;100.00
30463;BME280;17256;43.618;25.336;2023-04-15T00:56:37;99695.50;;;11.59;100.00
30463;BME280;17256;43.618;25.336;2023-04-15T00:59:04;99640.03;;;11.26;100.00
30463;BME280;17256;43.618;25.336;2023-04-15T01:01:34;99624.47;;;11.20;100.00
30463;BME280;17256;43.618;25.336;2023-04-15T01:04:01;99544.56;;;10.78;100.00
30463;BME280;17256;43.618;25.336;2023-04-15T01:06:28;99570.78;;;10.99;100.00
30463;BME280;17256;43.618;25.336;2023-04-15T01:08:55;99845.03;;;12.63;100.00
30463;BME280;17256;43.618;25.336;2023-04-15T01:11:22;99838.06;;;12.79;100.00
30463;BME280;17256;43.618;25.336;2023-04-15T01:13:48;99611.84;;;11.30;100.00
30463;BME280;17256;43.618;25.336;2023-04-15T01:16:16;99673.59;;;11.71;100.00
30463;BME280;17256;43.618;25.336;2023-04-15T01:18:41;99611.03;;;11.30;100.00
30463;BME280;17256;43.618;25.336;2023-04-15T01:21:07;99710.91;;;12.04;100.00
30463;BME280;17256;43.618;25.336;2023-04-15T01:23:35;99607.97;;;11.38;100.00
30463;BME280;17256;43.618;25.336;2023-04-15T01:26:03;99596.13;;;11.19;100.00
30463;BME280;17256;43.618;25.336;2023-04-15T01:28:30;99703.84;;;11.89;100.00
30463;BME280;17256;43.618;25.336;2023-04-15T01:31:09;99860.25;;;12.84;100.00
30463;BME280;17256;43.618;25.336;2023-04-15T01:33:36;99623.78;;;11.24;100.00
30463;BME280;17256;43.618;25.336;2023-04-15T01:36:03;99679.00;;;11.78;100.00
30463;BME280;17256;43.618;25.336;2023-04-15T01:38:29;99724.03;;;12.01;100.00
30463;BME280;17256;43.618;25.336;2023-04-15T01:40:55;99745.84;;;12.03;100.00
30463;BME280;17256;43.618;25.336;2023-04-15T01:43:24;99700.50;;;11.87;100.00
30463;BME280;17256;43.618;25.336;2023-04-15T01:45:49;99610.38;;;11.09;100.00
30463;BME280;17256;43.618;25.336;2023-04-15T01:48:15;99754.34;;;11.77;100.00
30463;BME280;17256;43.618;25.336;2023-04-15T01:50:41;99690.13;;;11.28;100.00
30463;BME280;17256;43.618;25.336;2023-04-15T01:53:07;99745.91;;;11.53;100.00
30463;BME280;17256;43.618;25.336;2023-04-15T01:55:34;99748.66;;;11.53;100.00
30463;BME280;17256;43.618;25.336;2023-04-15T01:57:59;99636.88;;;10.79;100.00
30463;BME280;17256;43.618;25.336;2023-04-15T02:00:25;99666.31;;;10.97;100.00
30463;BME280;17256;43.618;25.336;2023-04-15T02:02:51;99670.38;;;10.88;100.00
30463;BME280;17256;43.618;25.336;2023-04-15T02:05:17;99665.00;;;10.74;100.00
30463;BME280;17256;43.618;25.336;2023-04-15T02:07:46;99714.91;;;11.21;100.00
30463;BME280;17256;43.618;25.336;2023-04-15T02:10:12;99748.06;;;11.26;100.00
30463;BME280;17256;43.618;25.336;2023-04-15T02:12:40;99872.38;;;11.85;100.00
30463;BME280;17256;43.618;25.336;2023-04-15T02:15:06;99710.41;;;10.77;100.00
30463;BME280;17256;43.618;25.336;2023-04-15T02:17:37;99711.56;;;10.94;100.00
30463;BME280;17256;43.618;25.336;2023-04-15T02:20:03;99574.19;;;10.20;100.00
30463;BME280;17256;43.618;25.336;2023-04-15T02:22:33;99688.19;;;10.54;100.00
30463;BME280;17256;43.618;25.336;2023-04-15T02:24:58;99832.13;;;11.34;100.00
30463;BME280;17256;43.618;25.336;2023-04-15T02:27:24;99836.94;;;11.14;100.00
30463;BME280;17256;43.618;25.336;2023-04-15T02:29:58;99777.34;;;10.83;100.00
30463;BME280;17256;43.618;25.336;2023-04-15T02:32:29;99873.16;;;11.35;100.00
30463;BME280;17256;43.618;25.336;2023-04-15T02:34:54;99823.97;;;10.96;100.00
30463;BME280;17256;43.618;25.336;2023-04-15T02:37:20;99767.22;;;10.45;100.00
30463;BME280;17256;43.618;25.336;2023-04-15T02:39:46;99768.06;;;10.45;100.00
30463;BME280;17256;43.618;25.336;2023-04-15T02:42:13;99792.75;;;10.45;100.00
30463;BME280;17256;43.618;25.336;2023-04-15T02:44:39;99650.22;;;9.54;100.00
30463;BME280;17256;43.618;25.336;2023-04-15T02:47:04;99741.81;;;10.05;100.00
30463;BME280;17256;43.618;25.336;2023-04-15T02:49:31;99743.53;;;9.99;100.00
30463;BME280;17256;43.618;25.336;2023-04-15T02:51:57;99802.28;;;10.36;100.00
30463;BME280;17256;43.618;25.336;2023-04-15T02:54:24;99761.38;;;10.28;100.00
30463;BME280;17256;43.618;25.336;2023-04-15T02:56:51;99705.56;;;9.90;100.00
30463;BME280;17256;43.618;25.336;2023-04-15T02:59:19;99594.91;;;9.19;100.00
30463;BME280;17256;43.618;25.336;2023-04-15T03:01:45;99702.91;;;9.63;100.00
30463;BME280;17256;43.618;25.336;2023-04-15T03:04:11;99712.59;;;9.72;100.00
30463;BME280;17256;43.618;25.336;2023-04-15T03:06:37;99648.84;;;9.25;100.00
30463;BME280;17256;43.618;25.336;2023-04-15T03:09:03;99681.91;;;9.31;100.00
30463;BME280;17256;43.618;25.336;2023-04-15T03:11:33;99800.00;;;10.13;100.00
30463;BME280;17256;43.618;25.336;2023-04-15T03:13:59;99793.59;;;9.75;100.00
30463;BME280;17256;43.618;25.336;2023-04-15T03:16:30;99728.69;;;9.36;100.00
30463;BME280;17256;43.618;25.336;2023-04-15T03:18:57;99612.25;;;8.67;100.00
30463;BME280;17256;43.618;25.336;2023-04-15T03:21:23;99820.56;;;9.84;100.00
30463;BME280;17256;43.618;25.336;2023-04-15T03:23:49;99683.22;;;8.95;100.00
30463;BME280;17256;43.618;25.336;2023-04-15T03:26:29;99801.41;;;9.58;100.00
30463;BME280;17256;43.618;25.336;2023-04-15T03:28:58;99778.63;;;9.38;100.00
30463;BME280;17256;43.618;25.336;2023-04-15T03:31:24;99730.81;;;9.07;100.00
30463;BME280;17256;43.618;25.336;2023-04-15T03:33:49;99736.72;;;9.11;100.00
30463;BME280;17256;43.618;25.336;2023-04-15T03:36:15;99736.50;;;8.99;100.00
30463;BME280;17256;43.618;25.336;2023-04-15T03:38:41;99677.31;;;8.85;100.00
30463;BME280;17256;43.618;25.336;2023-04-15T03:41:07;99832.41;;;9.72;100.00
30463;BME280;17256;43.618;25.336;2023-04-15T03:43:34;99671.63;;;8.73;100.00
30463;BME280;17256;43.618;25.336;2023-04-15T03:45:59;99781.81;;;9.28;100.00
30463;BME280;17256;43.618;25.336;2023-04-15T03:48:25;99787.72;;;9.32;100.00
30463;BME280;17256;43.618;25.336;2023-04-15T03:50:51;99785.19;;;9.30;100.00
30463;BME280;17256;43.618;25.336;2023-04-15T03:53:19;99895.41;;;10.11;100.00
30463;BME280;17256;43.618;25.336;2023-04-15T03:55:45;99865.06;;;9.86;100.00
30463;BME280;17256;43.618;25.336;2023-04-15T03:58:11;99884.25;;;10.00;100.00
30463;BME280;17256;43.618;25.336;2023-04-15T04:00:37;99855.56;;;9.89;100.00
30463;BME280;17256;43.618;25.336;2023-04-15T04:03:03;99745.34;;;9.14;100.00
30463;BME280;17256;43.618;25.336;2023-04-15T04:05:29;99769.16;;;9.40;100.00
30463;BME280;17256;43.618;25.336;2023-04-15T04:07:55;99714.78;;;9.44;100.00
30463;BME280;17256;43.618;25.336;2023-04-15T04:10:21;99777.09;;;9.88;100.00
30463;BME280;17256;43.618;25.336;2023-04-15T04:12:46;99883.34;;;10.45;100.00
30463;BME280;17256;43.618;25.336;2023-04-15T04:15:12;99794.00;;;9.78;100.00
30463;BME280;17256;43.618;25.336;2023-04-15T04:17:37;99823.63;;;10.14;100.00
30463;BME280;17256;43.618;25.336;2023-04-15T04:20:03;99819.44;;;10.25;100.00
30463;BME280;17256;43.618;25.336;2023-04-15T04:22:30;99816.22;;;10.41;100.00
30463;BME280;17256;43.618;25.336;2023-04-15T04:24:55;99802.09;;;10.31;100.00
30463;BME280;17256;43.618;25.336;2023-04-15T04:27:23;99836.66;;;10.52;100.00
30463;BME280;17256;43.618;25.336;2023-04-15T04:29:49;99831.81;;;10.47;100.00
30463;BME280;17256;43.618;25.336;2023-04-15T04:32:15;99819.34;;;10.52;100.00
30463;BME280;17256;43.618;25.336;2023-04-15T04:34:40;99744.59;;;9.98;100.00
30463;BME280;17256;43.618;25.336;2023-04-15T04:37:06;99783.97;;;10.17;100.00
30463;BME280;17256;43.618;25.336;2023-04-15T04:39:31;99831.63;;;10.42;100.00
30463;BME280;17256;43.618;25.336;2023-04-15T04:41:57;99794.03;;;10.36;100.00
30463;BME280;17256;43.618;25.336;2023-04-15T04:44:23;99821.28;;;10.44;100.00
30463;BME280;17256;43.618;25.336;2023-04-15T04:46:48;99807.34;;;10.39;100.00
30463;BME280;17256;43.618;25.336;2023-04-15T04:49:14;99868.28;;;10.61;100.00
30463;BME280;17256;43.618;25.336;2023-04-15T04:51:39;99829.09;;;10.34;100.00
30463;BME280;17256;43.618;25.336;2023-04-15T04:54:05;99844.41;;;10.62;100.00
30463;BME280;17256;43.618;25.336;2023-04-15T04:56:31;99799.31;;;10.44;100.00
30463;BME280;17256;43.618;25.336;2023-04-15T04:58:58;99937.50;;;11.28;100.00
30463;BME280;17256;43.618;25.336;2023-04-15T05:01:24;99756.28;;;10.32;100.00
30463;BME280;17256;43.618;25.336;2023-04-15T05:03:51;99820.97;;;10.66;100.00
30463;BME280;17256;43.618;25.336;2023-04-15T05:06:16;99809.13;;;10.65;100.00
30463;BME280;17256;43.618;25.336;2023-04-15T05:08:42;99873.31;;;11.09;100.00
30463;BME280;17256;43.618;25.336;2023-04-15T05:11:07;99804.06;;;10.69;100.00
30463;BME280;17256;43.618;25.336;2023-04-15T05:13:33;100064.84;;;12.05;100.00
30463;BME280;17256;43.618;25.336;2023-04-15T05:15:58;100073.97;;;11.98;100.00
30463;BME280;17256;43.618;25.336;2023-04-15T05:18:24;99845.97;;;10.44;100.00
30463;BME280;17256;43.618;25.336;2023-04-15T05:21:14;99701.06;;;9.50;100.00
30463;BME280;17256;43.618;25.336;2023-04-15T05:26:54;99956.59;;;11.09;100.00
30463;BME280;17256;43.618;25.336;2023-04-15T05:29:21;99834.38;;;10.42;100.00
30463;BME280;17256;43.618;25.336;2023-04-15T05:31:46;99838.38;;;10.40;100.00
30463;BME280;17256;43.618;25.336;2023-04-15T05:34:12;99871.56;;;10.83;100.00
30463;BME280;17256;43.618;25.336;2023-04-15T05:36:40;99929.63;;;11.31;100.00
30463;BME280;17256;43.618;25.336;2023-04-15T05:39:05;99944.31;;;11.19;100.00
30463;BME280;17256;43.618;25.336;2023-04-15T05:41:31;99876.09;;;10.58;100.00
30463;BME280;17256;43.618;25.336;2023-04-15T05:43:57;99868.06;;;10.63;100.00
30463;BME280;17256;43.618;25.336;2023-04-15T05:46:22;99869.44;;;10.85;100.00
30463;BME280;17256;43.618;25.336;2023-04-15T05:48:48;100013.75;;;11.77;100.00
30463;BME280;17256;43.618;25.336;2023-04-15T05:51:13;99855.81;;;11.03;100.00
30463;BME280;17256;43.618;25.336;2023-04-15T05:53:39;100004.25;;;11.80;100.00
30463;BME280;17256;43.618;25.336;2023-04-15T05:56:08;99921.44;;;11.25;100.00
30463;BME280;17256;43.618;25.336;2023-04-15T05:58:33;99920.56;;;11.31;100.00
30463;BME280;17256;43.618;25.336;2023-04-15T06:00:59;99975.03;;;11.47;100.00
30463;BME280;17256;43.618;25.336;2023-04-15T06:03:25;100116.63;;;12.21;100.00
30463;BME280;17256;43.618;25.336;2023-04-15T06:05:50;99954.28;;;11.06;100.00
30463;BME280;17256;43.618;25.336;2023-04-15T06:08:16;99893.31;;;10.91;100.00
30463;BME280;17256;43.618;25.336;2023-04-15T06:10:42;99899.78;;;11.42;100.00
30463;BME280;17256;43.618;25.336;2023-04-15T06:13:07;99985.69;;;12.50;100.00
30463;BME280;17256;43.618;25.336;2023-04-15T06:15:33;99886.16;;;12.46;100.00
30463;BME280;17256;43.618;25.336;2023-04-15T06:17:58;99860.44;;;12.34;100.00
30463;BME280;17256;43.618;25.336;2023-04-15T06:20:24;99934.81;;;12.71;100.00
30463;BME280;17256;43.618;25.336;2023-04-15T06:22:53;100038.34;;;13.88;100.00
30463;BME280;17256;43.618;25.336;2023-04-15T06:25:35;100088.88;;;14.30;100.00
30463;BME280;17256;43.618;25.336;2023-04-15T06:28:00;99907.72;;;13.34;100.00
30463;BME280;17256;43.618;25.336;2023-04-15T06:30:26;99961.41;;;14.03;100.00
30463;BME280;17256;43.618;25.336;2023-04-15T06:32:51;99991.34;;;14.30;100.00
30463;BME280;17256;43.618;25.336;2023-04-15T06:35:17;99940.47;;;14.49;97.06
30463;BME280;17256;43.618;25.336;2023-04-15T06:37:43;99944.19;;;14.66;90.35
30463;BME280;17256;43.618;25.336;2023-04-15T06:40:09;99926.53;;;14.67;86.02
30463;BME280;17256;43.618;25.336;2023-04-15T06:42:34;99975.13;;;15.15;83.04
30463;BME280;17256;43.618;25.336;2023-04-15T06:45:01;99912.03;;;15.00;77.57
30463;BME280;17256;43.618;25.336;2023-04-15T06:47:27;100010.81;;;15.57;76.19
30463;BME280;17256;43.618;25.336;2023-04-15T06:49:52;99998.56;;;15.81;72.49
30463;BME280;17256;43.618;25.336;2023-04-15T06:52:18;99934.47;;;15.16;75.92
30463;BME280;17256;43.618;25.336;2023-04-15T06:54:44;99961.41;;;15.49;68.72
30463;BME280;17256;43.618;25.336;2023-04-15T06:57:10;99942.34;;;15.64;65.84
30463;BME280;17256;43.618;25.336;2023-04-15T06:59:35;100027.38;;;16.42;65.51
30463;BME280;17256;43.618;25.336;2023-04-15T07:02:01;99912.13;;;15.05;67.24
30463;BME280;17256;43.618;25.336;2023-04-15T07:04:27;100019.38;;;16.12;65.58
30463;BME280;17256;43.618;25.336;2023-04-15T07:06:53;100182.84;;;17.36;68.35
30463;BME280;17256;43.618;25.336;2023-04-15T07:09:21;100006.13;;;16.14;64.81
30463;BME280;17256;43.618;25.336;2023-04-15T07:11:46;100073.69;;;16.13;66.02
30463;BME280;17256;43.618;25.336;2023-04-15T07:14:12;99926.78;;;15.34;67.10
30463;BME280;17256;43.618;25.336;2023-04-15T07:16:37;100033.34;;;15.89;68.16
30463;BME280;17256;43.618;25.336;2023-04-15T07:19:03;100206.41;;;17.17;67.87
30463;BME280;17256;43.618;25.336;2023-04-15T07:21:28;100037.06;;;16.73;65.83
30463;BME280;17256;43.618;25.336;2023-04-15T07:23:54;99942.72;;;16.01;64.70
30463;BME280;17256;43.618;25.336;2023-04-15T07:26:20;100110.13;;;16.84;64.72
30463;BME280;17256;43.618;25.336;2023-04-15T07:28:45;100089.94;;;16.55;66.39
30463;BME280;17256;43.618;25.336;2023-04-15T07:31:12;100002.50;;;16.30;65.13
30463;BME280;17256;43.618;25.336;2023-04-15T07:33:37;99943.56;;;16.35;65.32
30463;BME280;17256;43.618;25.336;2023-04-15T07:36:03;100008.91;;;17.03;64.72
30463;BME280;17256;43.618;25.336;2023-04-15T07:38:29;100027.28;;;17.26;64.60
30463;BME280;17256;43.618;25.336;2023-04-15T07:40:54;100055.81;;;17.21;65.43
30463;BME280;17256;43.618;25.336;2023-04-15T07:43:20;100026.91;;;17.61;63.08
30463;BME280;17256;43.618;25.336;2023-04-15T07:45:46;100020.00;;;17.42;62.63
30463;BME280;17256;43.618;25.336;2023-04-15T07:48:12;99974.63;;;16.71;61.04
30463;BME280;17256;43.618;25.336;2023-04-15T07:50:38;100097.03;;;17.35;62.00
30463;BME280;17256;43.618;25.336;2023-04-15T07:53:03;100052.91;;;16.61;63.26
30463;BME280;17256;43.618;25.336;2023-04-15T07:55:30;99980.75;;;15.89;63.03
30463;BME280;17256;43.618;25.336;2023-04-15T08:04:40;99816.88;;;15.75;61.51
30463;BME280;17256;43.618;25.336;2023-04-15T08:07:05;100229.72;;;18.54;60.01
30463;BME280;17256;43.618;25.336;2023-04-15T08:09:32;99939.16;;;17.11;59.43
30463;BME280;17256;43.618;25.336;2023-04-15T08:11:58;100140.13;;;18.47;58.92
30463;BME280;17256;43.618;25.336;2023-04-15T08:14:23;100017.81;;;17.44;60.42
30463;BME280;17256;43.618;25.336;2023-04-15T08:16:49;100068.50;;;18.05;59.31
30463;BME280;17256;43.618;25.336;2023-04-15T08:19:15;99918.25;;;16.65;59.91
30463;BME280;17256;43.618;25.336;2023-04-15T08:21:41;100060.66;;;17.53;59.72
30463;BME280;17256;43.618;25.336;2023-04-15T08:24:07;100249.34;;;19.18;58.78
30463;BME280;17256;43.618;25.336;2023-04-15T08:26:33;99888.38;;;16.89;58.94
30463;BME280;17256;43.618;25.336;2023-04-15T08:32:23;100094.53;;;18.21;58.70
30463;BME280;17256;43.618;25.336;2023-04-15T08:39:51;100257.84;;;19.06;57.71
30463;BME280;17256;43.618;25.336;2023-04-15T08:43:22;100266.03;;;19.18;58.63
30463;BME280;17256;43.618;25.336;2023-04-15T08:49:14;100065.00;;;17.88;59.86
30463;BME280;17256;43.618;25.336;2023-04-15T08:51:42;100194.50;;;18.86;59.21
30463;BME280;17256;43.618;25.336;2023-04-15T08:54:08;100068.47;;;17.56;60.09
30463;BME280;17256;43.618;25.336;2023-04-15T08:56:35;100053.25;;;18.07;59.31
30463;BME280;17256;43.618;25.336;2023-04-15T08:59:01;100261.03;;;19.20;59.63
30463;BME280;17256;43.618;25.336;2023-04-15T09:01:28;100113.41;;;18.45;61.16
30463;BME280;17256;43.618;25.336;2023-04-15T09:04:22;100184.19;;;18.60;59.79
30463;BME280;17256;43.618;25.336;2023-04-15T09:08:21;100252.56;;;19.36;59.70
30463;BME280;17256;43.618;25.336;2023-04-15T09:11:51;99972.47;;;18.14;58.65
30463;BME280;17256;43.618;25.336;2023-04-15T09:14:48;100248.81;;;19.95;58.79
30463;BME280;17256;43.618;25.336;2023-04-15T09:18:49;99858.69;;;17.11;56.35
30463;BME280;17256;43.618;25.336;2023-04-15T09:22:08;99991.13;;;18.19;56.54
30463;BME280;17256;43.618;25.336;2023-04-15T09:25:26;99858.22;;;17.73;56.20
30463;BME280;17256;43.618;25.336;2023-04-15T09:28:45;100229.59;;;20.51;54.40
30463;BME280;17256;43.618;25.336;2023-04-15T09:32:52;100083.16;;;19.18;52.52
30463;BME280;17256;43.618;25.336;2023-04-15T09:46:41;100223.84;;;20.88;51.91
30463;BME280;17256;43.618;25.336;2023-04-15T09:49:13;100233.28;;;20.62;53.08
30463;BME280;17256;43.618;25.336;2023-04-15T09:51:51;99824.06;;;18.10;50.39
30463;BME280;17256;43.618;25.336;2023-04-15T09:54:37;99991.13;;;19.40;50.60
30463;BME280;17256;43.618;25.336;2023-04-15T09:57:09;100237.56;;;21.30;52.38
30463;BME280;17256;43.618;25.336;2023-04-15T09:59:56;100236.91;;;20.72;49.39
30463;BME280;17256;43.618;25.336;2023-04-15T10:02:25;100228.25;;;20.79;49.55
30463;BME280;17256;43.618;25.336;2023-04-15T10:04:56;100230.53;;;20.97;50.16
30463;BME280;17256;43.618;25.336;2023-04-15T10:07:27;100141.84;;;20.06;49.34
30463;BME280;17256;43.618;25.336;2023-04-15T10:10:10;100085.03;;;20.22;48.61
30463;BME280;17256;43.618;25.336;2023-04-15T10:12:41;100226.63;;;21.03;45.94
30463;BME280;17256;43.618;25.336;2023-04-15T10:15:15;100219.94;;;20.94;45.45
30463;BME280;17256;43.618;25.336;2023-04-15T10:17:43;100214.25;;;20.48;47.26
30463;BME280;17256;43.618;25.336;2023-04-15T10:20:11;100053.88;;;19.58;46.01
30463;BME280;17256;43.618;25.336;2023-04-15T10:22:39;100218.25;;;21.03;46.59
30463;BME280;17256;43.618;25.336;2023-04-15T10:25:09;100143.44;;;20.80;46.63
30463;BME280;17256;43.618;25.336;2023-04-15T10:27:37;100210.75;;;21.14;45.82
30463;BME280;17256;43.618;25.336;2023-04-15T10:30:08;100135.63;;;21.02;43.90
30463;BME280;17256;43.618;25.336;2023-04-15T10:32:40;100115.25;;;21.07;43.72
30463;BME280;17256;43.618;25.336;2023-04-15T10:35:13;99985.25;;;20.60;45.47
30463;BME280;17256;43.618;25.336;2023-04-15T10:37:42;100115.19;;;21.63;45.08
30463;BME280;17256;43.618;25.336;2023-04-15T10:40:30;100209.47;;;22.32;45.47
30463;BME280;17256;43.618;25.336;2023-04-15T10:43:03;100093.19;;;21.26;45.26
30463;BME280;17256;43.618;25.336;2023-04-15T10:45:34;100179.09;;;21.90;45.25
30463;BME280;17256;43.618;25.336;2023-04-15T10:48:02;100124.72;;;21.31;45.44
30463;BME280;17256;43.618;25.336;2023-04-15T10:50:30;100203.47;;;21.64;46.49
30463;BME280;17256;43.618;25.336;2023-04-15T10:52:57;100039.91;;;20.41;45.57
30463;BME280;17256;43.618;25.336;2023-04-15T10:55:31;100213.84;;;21.43;46.25
30463;BME280;17256;43.618;25.336;2023-04-15T10:57:58;100215.22;;;21.61;46.31
30463;BME280;17256;43.618;25.336;2023-04-15T11:00:28;100208.16;;;21.94;46.04
30463;BME280;17256;43.618;25.336;2023-04-15T11:03:57;100216.34;;;21.39;46.62
30463;BME280;17256;43.618;25.336;2023-04-15T11:07:05;100219.16;;;21.39;46.37
30463;BME280;17256;43.618;25.336;2023-04-15T11:11:12;100209.06;;;21.13;45.76
30463;BME280;17256;43.618;25.336;2023-04-15T11:14:46;100207.38;;;21.12;46.03
30463;BME280;17256;43.618;25.336;2023-04-15T11:21:52;100106.78;;;21.63;44.36
30463;BME280;17256;43.618;25.336;2023-04-15T11:25:29;100191.25;;;22.29;43.67
30463;BME280;17256;43.618;25.336;2023-04-15T11:29:03;100209.03;;;21.69;45.12
30463;BME280;17256;43.618;25.336;2023-04-15T11:32:47;100214.91;;;21.83;46.00
30463;BME280;17256;43.618;25.336;2023-04-15T11:36:38;100213.44;;;22.05;44.88
30463;BME280;17256;43.618;25.336;2023-04-15T11:40:31;100215.78;;;21.07;45.67
30463;BME280;17256;43.618;25.336;2023-04-15T11:44:16;100204.03;;;21.61;46.08
30463;BME280;17256;43.618;25.336;2023-04-15T11:48:21;100188.81;;;22.02;44.22
30463;BME280;17256;43.618;25.336;2023-04-15T12:02:35;100175.31;;;21.35;44.94
30463;BME280;17256;43.618;25.336;2023-04-15T12:06:24;100176.09;;;21.61;45.94
30463;BME280;17256;43.618;25.336;2023-04-15T12:11:40;100145.28;;;21.86;44.97
30463;BME280;17256;43.618;25.336;2023-04-15T12:16:48;99898.22;;;20.33;44.56
30463;BME280;17256;43.618;25.336;2023-04-15T12:22:01;99931.41;;;20.04;46.01
30463;BME280;17256;43.618;25.336;2023-04-15T12:25:07;99788.13;;;19.18;44.51
30463;BME280;17256;43.618;25.336;2023-04-15T12:27:32;99972.97;;;20.61;44.11
30463;BME280;17256;43.618;25.336;2023-04-15T12:30:04;100131.63;;;21.74;42.75
30463;BME280;17256;43.618;25.336;2023-04-15T12:32:34;100010.59;;;20.94;42.61
30463;BME280;17256;43.618;25.336;2023-04-15T12:35:00;100114.63;;;21.50;43.35
30463;BME280;17256;43.618;25.336;2023-04-15T12:37:26;100128.16;;;22.13;43.42
30463;BME280;17256;43.618;25.336;2023-04-15T12:39:52;99978.81;;;20.70;42.87
30463;BME280;17256;43.618;25.336;2023-04-15T12:42:19;99989.41;;;20.68;42.97
30463;BME280;17256;43.618;25.336;2023-04-15T12:44:45;100026.44;;;21.34;43.04
30463;BME280;17256;43.618;25.336;2023-04-15T12:47:11;100055.50;;;21.03;42.79
30463;BME280;17256;43.618;25.336;2023-04-15T12:49:37;100008.91;;;20.98;42.86
30463;BME280;17256;43.618;25.336;2023-04-15T12:52:04;100179.31;;;22.14;43.37
30463;BME280;17256;43.618;25.336;2023-04-15T12:54:30;99973.94;;;21.26;42.81
30463;BME280;17256;43.618;25.336;2023-04-15T12:56:56;100019.69;;;21.45;41.98
30463;BME280;17256;43.618;25.336;2023-04-15T12:59:22;99988.88;;;21.61;42.23
30463;BME280;17256;43.618;25.336;2023-04-15T13:01:49;100201.47;;;23.03;41.70
30463;BME280;17256;43.618;25.336;2023-04-15T13:04:15;100037.75;;;22.23;41.73
30463;BME280;17256;43.618;25.336;2023-04-15T13:06:41;100112.00;;;22.88;41.46
30463;BME280;17256;43.618;25.336;2023-04-15T13:09:07;100032.25;;;22.02;41.42
30463;BME280;17256;43.618;25.336;2023-04-15T13:11:33;99978.31;;;22.07;41.19
30463;BME280;17256;43.618;25.336;2023-04-15T13:14:05;100013.44;;;22.18;41.74
30463;BME280;17256;43.618;25.336;2023-04-15T13:16:32;99945.41;;;21.89;40.19
30463;BME280;17256;43.618;25.336;2023-04-15T13:18:58;99990.88;;;22.04;41.28
30463;BME280;17256;43.618;25.336;2023-04-15T13:21:24;99977.19;;;21.98;40.62
30463;BME280;17256;43.618;25.336;2023-04-15T13:23:49;100017.94;;;22.14;42.16
30463;BME280;17256;43.618;25.336;2023-04-15T13:26:16;100169.19;;;23.45;41.04
30463;BME280;17256;43.618;25.336;2023-04-15T13:28:42;99992.13;;;22.27;41.20
30463;BME280;17256;43.618;25.336;2023-04-15T13:31:08;99956.53;;;21.49;41.49
30463;BME280;17256;43.618;25.336;2023-04-15T13:33:33;100001.28;;;21.39;42.42
30463;BME280;17256;43.618;25.336;2023-04-15T13:35:59;100067.88;;;21.82;42.40
30463;BME280;17256;43.618;25.336;2023-04-15T13:38:24;100136.84;;;22.06;42.43
30463;BME280;17256;43.618;25.336;2023-04-15T13:40:50;100027.34;;;20.79;42.49
30463;BME280;17256;43.618;25.336;2023-04-15T13:43:15;100071.72;;;20.91;43.49
30463;BME280;17256;43.618;25.336;2023-04-15T13:45:43;99966.00;;;20.64;43.63
30463;BME280;17256;43.618;25.336;2023-04-15T13:48:09;100166.56;;;22.47;42.26
30463;BME280;17256;43.618;25.336;2023-04-15T13:50:34;99958.88;;;21.17;42.20
30463;BME280;17256;43.618;25.336;2023-04-15T13:53:00;99910.56;;;21.16;42.01
30463;BME280;17256;43.618;25.336;2023-04-15T13:55:26;99998.66;;;21.63;42.61
30463;BME280;17256;43.618;25.336;2023-04-15T13:57:51;99914.50;;;21.05;43.05
30463;BME280;17256;43.618;25.336;2023-04-15T14:00:17;100169.38;;;22.91;42.16
30463;BME280;17256;43.618;25.336;2023-04-15T14:02:43;99968.69;;;21.74;41.31
30463;BME280;17256;43.618;25.336;2023-04-15T14:05:09;100163.84;;;22.76;41.88